Sparta, NC

1:28 PM EDT on September 25, 2016 (GMT -0400)
Sparta Grandview | | Change Station

Elev 2835 ft 36.50 °N, 81.12 °W | Updated 9 minutes ago

Overcast
Overcast
74.3 °F
Feels Like 75 °F
N
3.7
Wind Variable Wind from WNW

Today
High -- | Low -- °F
--% Chance of Precip.
Yesterday
High -- | Low -- °F
Precip. -- in
Pressure 30.23 in
Visibility 10.0 miles
Clouds Overcast 1200 ft
Heat Index 75 °F
Dew Point 68 °F
Humidity 81%
Rainfall 0.00 in
Snow Depth Not available.
7:15 AM 7:16 PM
Waning Crescent, 26% visible
METAR KGEV 251705Z AUTO 13005KT 10SM OVC012 21/18 A3023 RMK AO2 T02140175
Pressure 30.23 in
Visibility 10.0 miles
Clouds Overcast 1200 ft
Heat Index 75 °F
Dew Point 68 °F
Humidity 81%
Rainfall 0.00 in
Snow Depth Not available.
7:15 AM 7:16 PM
Waning Crescent, 26% visible
METAR KGEV 251705Z AUTO 13005KT 10SM OVC012 21/18 A3023 RMK AO2 T02140175

10-Day Weather Forecast

Almanac

Astronomy

Sep. 25, 2016 Rise Set
Actual Time
Civil Twilight
Nautical Twilight
Astronomical Twilight
Moon
Length of Visible Light
Length of Day
Tomorrow will be .
, % of the Moon is Illuminated

Today's Extremes

State Highs State Lows

Community

WunderPhotos

Upload Photos

1,941,670 photos uploaded!

WunderBlog® & News

Nearby

Air Quality

  Air Quality AQ Index Pollutant
Not available.

Snow Depth

Station Depth Elevation

Earthquake Activity

City Distance Mag. Time & Date
Minimum magnitude displayed is 2.5.

Coastal Water Temperatures

Place Temperature

Stations

Nearby Weather Stations

Station Location Temp. Windchill Dew Point Humidity Wind Precip. Elev Updated Type
                   

Watches & Warnings

There are currently no watches in effect.